Maltby, United Kingdom
Current Conditions -  °F | °C
As of 2:20 PM on Wednesday 28 Jan 2015 (Local Time) from EGCN Reporting Station
Rain Showers Rain Showers  
Wind Chill: 30°   Ceiling: Unl
Heat Index: 41°   Visibility: 6mi
Dew Point: 32°   Wind: 28mph
Humidity: 70%   Direction: 270°W
Pressure: 29.41"   Gusts: 43mph
Location:  53.42°N, 1.2°W
Report Text: EGCN 281420Z 27024G37KT 9999 VCSH SCT037 05/M00 Q0996
Loading
Personal Weather Stations






























Interactive Weather Map New forecast layout! Learn more

10-Day Weather Forecast

Advertisements
Track Severe Weather on mobile